createdAt,value
2023-01-13T00:00:08.790Z,44.0
2023-01-13T00:02:40.008Z,44.0
2023-01-13T00:05:11.140Z,44.0
2023-01-13T00:07:52.191Z,44.0
2023-01-13T00:10:13.284Z,43.0
2023-01-13T00:12:44.326Z,43.0
2023-01-13T00:15:15.504Z,43.0
2023-01-13T00:17:46.580Z,43.0
2023-01-13T00:20:17.603Z,43.0
2023-01-13T00:22:58.689Z,43.0
2023-01-13T00:25:29.731Z,43.0
2023-01-13T00:28:00.757Z,43.0
2023-01-13T00:30:31.846Z,43.0
2023-01-13T00:33:02.898Z,43.0
2023-01-13T00:38:14.123Z,43.0
2023-01-13T00:40:45.182Z,43.0
2023-01-13T00:43:16.197Z,43.0
2023-01-13T00:45:47.239Z,43.0
2023-01-13T00:48:18.276Z,43.0
2023-01-13T00:50:59.328Z,43.0
2023-01-13T00:53:30.370Z,43.0
2023-01-13T00:56:01.445Z,43.0
2023-01-13T00:58:32.479Z,44.0
2023-01-13T01:01:03.799Z,44.0
2023-01-13T01:03:35.047Z,45.0
2023-01-13T01:06:16.145Z,45.0
2023-01-13T01:08:47.219Z,45.0
2023-01-13T01:11:18.361Z,45.0
2023-01-13T01:13:49.412Z,45.0
2023-01-13T01:18:50.635Z,45.0
2023-01-13T01:21:31.736Z,45.0
2023-01-13T01:24:02.787Z,45.0
2023-01-13T01:26:33.839Z,45.0
2023-01-13T01:29:04.880Z,45.0
2023-01-13T01:31:36.070Z,46.0
2023-01-13T01:34:07.282Z,46.0
2023-01-13T01:36:48.375Z,46.0
2023-01-13T01:39:19.406Z,46.0
2023-01-13T01:41:50.432Z,46.0
2023-01-13T01:44:21.492Z,46.0
2023-01-13T01:46:52.638Z,46.0
2023-01-13T01:49:13.962Z,46.0
2023-01-13T01:51:55.053Z,46.0
2023-01-13T01:54:26.113Z,46.0
2023-01-13T01:59:27.321Z,46.0
2023-01-13T02:01:58.635Z,46.0
2023-01-13T02:04:39.873Z,46.0
2023-01-13T02:07:10.971Z,46.0
2023-01-13T02:09:42.024Z,46.0
2023-01-13T02:12:13.091Z,46.0
2023-01-13T02:14:44.145Z,47.0
2023-01-13T02:17:15.209Z,47.0
2023-01-13T02:19:56.269Z,47.0
2023-01-13T02:22:27.322Z,47.0
2023-01-13T02:24:58.417Z,47.0
2023-01-13T02:27:29.768Z,47.0
2023-01-13T02:30:01.065Z,47.0
2023-01-13T02:32:32.124Z,47.0
2023-01-13T02:35:13.223Z,48.0
2023-01-13T02:40:14.414Z,48.0
2023-01-13T02:42:45.442Z,48.0
2023-01-13T02:45:16.480Z,47.0
2023-01-13T02:47:47.677Z,48.0
2023-01-13T02:50:28.765Z,48.0
2023-01-13T02:52:59.821Z,48.0
2023-01-13T02:55:30.868Z,48.0
2023-01-13T02:58:01.944Z,48.0
2023-01-13T03:00:32.808Z,48.0
2023-01-13T03:03:13.845Z,48.0
2023-01-13T03:05:44.629Z,49.0
2023-01-13T03:08:15.386Z,49.0
2023-01-13T03:10:46.171Z,49.0
2023-01-13T03:13:16.947Z,49.0
2023-01-13T03:15:47.739Z,48.0
2023-01-13T03:20:58.773Z,48.0
2023-01-13T03:23:29.587Z,49.0
2023-01-13T03:26:00.333Z,49.0
2023-01-13T03:28:31.082Z,49.0
2023-01-13T03:31:02.032Z,49.0
2023-01-13T03:33:42.830Z,49.0
2023-01-13T03:36:13.636Z,49.0
2023-01-13T03:38:44.392Z,49.0
2023-01-13T03:41:15.148Z,48.0
2023-01-13T03:43:45.914Z,49.0
2023-01-13T03:46:16.794Z,49.0
2023-01-13T03:48:57.678Z,49.0
2023-01-13T03:51:28.447Z,49.0
2023-01-13T03:53:59.206Z,49.0
2023-01-13T03:56:29.995Z,49.0
2023-01-13T04:01:31.250Z,48.0
2023-01-13T04:04:12.264Z,48.0
2023-01-13T04:06:43.047Z,48.0
2023-01-13T04:09:13.891Z,48.0
2023-01-13T04:11:44.633Z,48.0
2023-01-13T04:14:15.408Z,48.0
2023-01-13T04:16:56.163Z,48.0
2023-01-13T04:19:26.947Z,48.0
2023-01-13T04:21:57.716Z,48.0
2023-01-13T04:24:28.492Z,48.0
2023-01-13T04:26:59.257Z,48.0
2023-01-13T04:29:30.035Z,48.0
2023-01-13T04:32:10.999Z,48.0
2023-01-13T04:34:41.757Z,48.0
2023-01-13T04:37:12.523Z,48.0
2023-01-13T04:42:13.441Z,48.0
2023-01-13T04:44:44.201Z,48.0
2023-01-13T04:47:24.956Z,48.0
2023-01-13T04:49:55.701Z,48.0
2023-01-13T04:52:26.496Z,48.0
2023-01-13T04:54:57.268Z,48.0
2023-01-13T04:57:28.029Z,48.0
2023-01-13T04:59:58.788Z,48.0
2023-01-13T05:02:39.609Z,48.0
2023-01-13T05:05:10.681Z,48.0
2023-01-13T05:07:41.468Z,49.0
2023-01-13T05:10:06.282Z,49.0
2023-01-13T05:12:37.039Z,49.0
2023-01-13T05:15:17.816Z,50.0
2023-01-13T05:17:48.571Z,50.0
2023-01-13T05:22:49.478Z,50.0
2023-01-13T05:25:20.241Z,50.0
2023-01-13T05:27:51.003Z,51.0
2023-01-13T05:30:31.861Z,51.0
2023-01-13T05:33:02.652Z,51.0
2023-01-13T05:35:33.450Z,51.0
2023-01-13T05:38:04.231Z,51.0
2023-01-13T05:40:35.074Z,51.0
2023-01-13T05:43:05.872Z,52.0
2023-01-13T05:45:46.707Z,52.0
2023-01-13T05:48:17.482Z,52.0
2023-01-13T05:50:48.284Z,52.0
2023-01-13T05:53:19.035Z,52.0
2023-01-13T05:55:49.880Z,52.0
2023-01-13T05:58:20.650Z,52.0
2023-01-13T06:03:31.581Z,52.0
2023-01-13T06:06:02.390Z,52.0
2023-01-13T06:08:33.183Z,52.0
2023-01-13T06:11:03.948Z,52.0
2023-01-13T06:13:34.747Z,52.0
2023-01-13T06:16:15.760Z,52.0
2023-01-13T06:18:46.588Z,52.0
2023-01-13T06:21:17.485Z,52.0
2023-01-13T06:23:48.339Z,52.0
2023-01-13T06:26:19.105Z,52.0
2023-01-13T06:28:49.905Z,52.0
2023-01-13T06:31:30.800Z,52.0
2023-01-13T06:34:01.727Z,52.0
2023-01-13T06:36:32.625Z,52.0
2023-01-13T06:39:03.407Z,52.0
2023-01-13T06:44:14.448Z,52.0
2023-01-13T06:46:45.406Z,52.0
2023-01-13T06:49:16.499Z,52.0
2023-01-13T06:51:47.329Z,52.0
2023-01-13T06:54:18.209Z,52.0
2023-01-13T06:56:49.004Z,52.0
2023-01-13T06:59:29.798Z,52.0
2023-01-13T07:02:00.818Z,52.0
2023-01-13T07:04:32.132Z,52.0
2023-01-13T07:07:02.939Z,52.0
2023-01-13T07:09:33.708Z,52.0
2023-01-13T07:12:04.544Z,52.0
2023-01-13T07:14:45.361Z,52.0
2023-01-13T07:17:16.233Z,51.0
2023-01-13T07:19:47.059Z,51.0
2023-01-13T07:24:48.281Z,51.0
2023-01-13T07:27:19.444Z,51.0
2023-01-13T07:30:00.360Z,50.0
2023-01-13T07:32:31.322Z,50.0
2023-01-13T07:35:02.127Z,50.0
2023-01-13T07:37:32.926Z,50.0
2023-01-13T07:40:03.691Z,50.0
2023-01-13T07:42:44.529Z,50.0
2023-01-13T07:45:15.456Z,50.0
2023-01-13T07:47:46.279Z,50.0
2023-01-13T07:50:17.080Z,50.0
2023-01-13T07:52:47.910Z,50.0
2023-01-13T07:55:18.690Z,50.0
2023-01-13T07:57:59.474Z,50.0
2023-01-13T08:00:30.441Z,50.0
2023-01-13T08:05:31.373Z,50.0
2023-01-13T08:08:02.205Z,50.0
2023-01-13T08:10:32.995Z,50.0
2023-01-13T08:13:13.810Z,50.0
2023-01-13T08:15:44.607Z,50.0
2023-01-13T08:18:15.443Z,50.0
2023-01-13T08:20:46.241Z,50.0
2023-01-13T08:23:17.792Z,50.0
2023-01-13T08:25:48.582Z,50.0
2023-01-13T08:28:29.352Z,49.0
2023-01-13T08:31:00.278Z,49.0
2023-01-13T08:33:31.180Z,49.0
2023-01-13T08:36:01.975Z,49.0
2023-01-13T08:38:32.811Z,49.0
2023-01-13T08:41:03.591Z,49.0
2023-01-13T08:46:14.753Z,49.0
2023-01-13T08:48:45.657Z,49.0
2023-01-13T08:51:16.427Z,49.0
2023-01-13T08:53:47.167Z,49.0
2023-01-13T08:56:27.967Z,49.0
2023-01-13T08:58:58.737Z,49.0
2023-01-13T09:01:29.721Z,49.0
2023-01-13T09:04:00.760Z,48.0
2023-01-13T09:06:31.619Z,48.0
2023-01-13T09:09:02.474Z,48.0
2023-01-13T09:11:43.289Z,48.0
2023-01-13T09:14:14.036Z,48.0
2023-01-13T09:16:44.913Z,48.0
2023-01-13T09:19:15.676Z,48.0
2023-01-13T09:21:46.589Z,48.0
2023-01-13T09:26:57.528Z,48.0
2023-01-13T09:29:28.331Z,48.0
2023-01-13T09:31:59.096Z,48.0
2023-01-13T09:34:29.923Z,48.0
2023-01-13T09:37:00.707Z,48.0
2023-01-13T09:39:31.489Z,48.0
2023-01-13T09:42:12.263Z,48.0
2023-01-13T09:44:43.070Z,48.0
2023-01-13T09:47:14.187Z,48.0
2023-01-13T09:49:45.006Z,48.0
2023-01-13T09:52:15.769Z,48.0
2023-01-13T09:54:57.823Z,48.0
2023-01-13T09:57:28.602Z,48.0
2023-01-13T09:59:59.436Z,48.0
2023-01-13T10:02:30.233Z,48.0
2023-01-13T10:07:34.030Z,48.0
2023-01-13T10:10:14.828Z,49.0
2023-01-13T10:12:45.626Z,49.0
2023-01-13T10:15:16.442Z,49.0
2023-01-13T10:17:47.231Z,49.0
2023-01-13T10:20:18.027Z,49.0
2023-01-13T10:22:48.967Z,48.0
2023-01-13T10:25:29.737Z,48.0
2023-01-13T10:28:00.497Z,48.0
2023-01-13T10:30:31.432Z,48.0
2023-01-13T10:33:02.327Z,48.0
2023-01-13T10:35:33.136Z,48.0
2023-01-13T10:38:03.902Z,48.0
2023-01-13T10:40:44.697Z,47.0
2023-01-13T10:43:15.478Z,47.0
2023-01-13T10:48:16.470Z,47.0
2023-01-13T10:50:47.265Z,47.0
2023-01-13T10:53:18.054Z,47.0
2023-01-13T10:56:01.851Z,47.0
2023-01-13T10:58:22.601Z,47.0
2023-01-13T11:00:53.379Z,47.0
2023-01-13T11:03:24.258Z,47.0
2023-01-13T11:05:55.099Z,47.0
2023-01-13T11:08:35.891Z,47.0
2023-01-13T11:11:06.682Z,47.0
2023-01-13T11:13:37.428Z,46.0
2023-01-13T11:16:08.275Z,46.0
2023-01-13T11:18:39.125Z,46.0
2023-01-13T11:21:09.974Z,45.0
2023-01-13T11:23:50.754Z,45.0
2023-01-13T11:28:51.731Z,44.0
2023-01-13T11:31:22.665Z,44.0
2023-01-13T11:33:53.529Z,43.0
2023-01-13T11:36:24.304Z,43.0
2023-01-13T11:39:05.060Z,42.0
2023-01-13T11:41:35.811Z,42.0
2023-01-13T11:44:06.575Z,41.0
2023-01-13T11:46:37.516Z,41.0
2023-01-13T11:49:08.467Z,41.0
2023-01-13T11:51:40.555Z,40.0
2023-01-13T11:54:21.314Z,40.0
2023-01-13T11:56:52.079Z,40.0
2023-01-13T11:59:22.880Z,40.0
2023-01-13T12:01:53.779Z,40.0
2023-01-13T12:04:24.582Z,40.0
2023-01-13T12:09:35.505Z,40.0
2023-01-13T12:12:06.279Z,40.0
2023-01-13T12:14:37.056Z,40.0
2023-01-13T12:17:10.002Z,39.0
2023-01-13T12:19:40.815Z,39.0
2023-01-13T12:22:21.691Z,40.0
2023-01-13T12:24:52.495Z,39.0
2023-01-13T12:27:23.300Z,39.0
2023-01-13T12:29:54.084Z,39.0
2023-01-13T12:32:24.876Z,39.0
2023-01-13T12:34:55.670Z,39.0
2023-01-13T12:37:36.433Z,39.0
2023-01-13T12:40:07.222Z,39.0
2023-01-13T12:42:37.979Z,39.0
2023-01-13T12:45:08.788Z,39.0
2023-01-13T12:50:09.694Z,39.0
2023-01-13T12:52:50.435Z,39.0
2023-01-13T12:55:21.182Z,39.0
2023-01-13T12:57:51.937Z,39.0
2023-01-13T13:00:22.741Z,38.0
2023-01-13T13:02:53.714Z,38.0
2023-01-13T13:05:24.600Z,38.0
2023-01-13T13:08:05.354Z,38.0
2023-01-13T13:10:36.114Z,38.0
2023-01-13T13:13:06.917Z,38.0
2023-01-13T13:15:37.669Z,38.0
2023-01-13T13:18:08.429Z,38.0
2023-01-13T13:20:49.188Z,38.0
2023-01-13T13:23:20.540Z,38.0
2023-01-13T13:25:51.345Z,38.0
2023-01-13T13:30:52.392Z,38.0
2023-01-13T13:33:23.319Z,38.0
2023-01-13T13:36:04.122Z,38.0
2023-01-13T13:38:34.902Z,38.0
2023-01-13T13:41:05.818Z,38.0
2023-01-13T13:43:36.593Z,38.0
2023-01-13T13:46:07.501Z,38.0
2023-01-13T13:48:38.370Z,38.0
2023-01-13T13:51:19.127Z,38.0
2023-01-13T13:53:49.897Z,38.0
2023-01-13T13:56:20.736Z,38.0
2023-01-13T13:58:51.496Z,38.0
2023-01-13T14:01:22.510Z,38.0
2023-01-13T14:03:53.507Z,38.0
2023-01-13T14:06:34.310Z,39.0
2023-01-13T14:11:35.153Z,39.0
2023-01-13T14:14:05.910Z,39.0
2023-01-13T14:16:36.687Z,39.0
2023-01-13T14:19:07.420Z,39.0
2023-01-13T14:21:48.192Z,39.0
2023-01-13T14:24:18.935Z,39.0
2023-01-13T14:26:49.694Z,39.0
2023-01-13T14:29:20.447Z,39.0
2023-01-13T14:31:51.193Z,39.0
2023-01-13T14:34:42.492Z,39.0
2023-01-13T14:37:03.372Z,39.0
2023-01-13T14:39:34.118Z,39.0
2023-01-13T14:42:04.881Z,39.0
2023-01-13T14:44:35.665Z,39.0
2023-01-13T14:47:06.442Z,39.0
2023-01-13T14:52:17.354Z,39.0
2023-01-13T14:54:48.121Z,39.0
2023-01-13T14:57:18.928Z,39.0
2023-01-13T14:59:49.697Z,39.0
2023-01-13T15:02:20.543Z,39.0
2023-01-13T15:05:01.407Z,39.0
2023-01-13T15:07:32.166Z,39.0
2023-01-13T15:10:02.931Z,39.0
2023-01-13T15:12:35.990Z,39.0
2023-01-13T15:15:07.848Z,39.0
2023-01-13T15:17:38.828Z,39.0
2023-01-13T15:20:19.593Z,39.0
2023-01-13T15:22:50.344Z,39.0
2023-01-13T15:25:21.115Z,39.0
2023-01-13T15:27:51.872Z,39.0
2023-01-13T15:32:52.874Z,39.0
2023-01-13T15:35:33.663Z,39.0
2023-01-13T15:38:04.443Z,39.0
2023-01-13T15:40:35.241Z,39.0
2023-01-13T15:43:06.030Z,39.0
2023-01-13T15:45:36.768Z,39.0
2023-01-13T15:48:17.548Z,39.0
2023-01-13T15:50:48.610Z,39.0
2023-01-13T15:53:20.080Z,39.0
2023-01-13T15:55:50.890Z,39.0
2023-01-13T15:58:21.642Z,39.0
2023-01-13T16:00:52.509Z,39.0
2023-01-13T16:03:33.547Z,39.0
2023-01-13T16:06:04.284Z,39.0
2023-01-13T16:08:35.033Z,39.0
2023-01-13T16:13:35.927Z,39.0
2023-01-13T16:16:07.095Z,39.0
2023-01-13T16:18:47.930Z,39.0
2023-01-13T16:21:18.684Z,39.0
2023-01-13T16:23:49.426Z,39.0
2023-01-13T16:26:20.167Z,39.0
2023-01-13T16:28:50.924Z,39.0
2023-01-13T16:31:21.746Z,39.0
2023-01-13T16:34:02.911Z,39.0
2023-01-13T16:36:33.697Z,39.0
2023-01-13T16:39:04.494Z,39.0
2023-01-13T16:41:35.333Z,39.0
2023-01-13T16:44:06.273Z,39.0
2023-01-13T16:46:27.085Z,39.0
2023-01-13T16:49:07.846Z,39.0
2023-01-13T16:54:18.761Z,39.0
2023-01-13T16:56:49.539Z,39.0
2023-01-13T16:59:20.284Z,40.0
2023-01-13T17:02:01.634Z,40.0
2023-01-13T17:04:32.404Z,40.0
2023-01-13T17:07:03.186Z,40.0
2023-01-13T17:09:33.905Z,40.0
2023-01-13T17:12:04.658Z,40.0
2023-01-13T17:14:35.401Z,41.0
2023-01-13T17:17:16.210Z,41.0
2023-01-13T17:19:46.926Z,41.0
2023-01-13T17:22:17.725Z,41.0
2023-01-13T17:24:48.877Z,41.0
2023-01-13T17:27:09.697Z,41.0
2023-01-13T17:29:40.452Z,41.0
2023-01-13T17:35:01.375Z,41.0
2023-01-13T17:37:32.143Z,41.0
2023-01-13T17:40:02.932Z,41.0
2023-01-13T17:42:34.880Z,41.0
2023-01-13T17:44:55.647Z,41.0
2023-01-13T17:47:36.428Z,41.0
2023-01-13T17:50:08.062Z,41.0
2023-01-13T17:52:38.807Z,41.0
2023-01-13T17:55:09.580Z,41.0
2023-01-13T17:57:40.357Z,41.0
2023-01-13T18:00:11.132Z,41.0
2023-01-13T18:02:52.127Z,41.0
2023-01-13T18:05:22.954Z,42.0
2023-01-13T18:07:53.749Z,42.0
2023-01-13T18:10:24.518Z,42.0
2023-01-13T18:15:35.436Z,42.0
2023-01-13T18:18:06.244Z,42.0
2023-01-13T18:20:37.335Z,42.0
2023-01-13T18:23:08.082Z,42.0
2023-01-13T18:25:38.826Z,42.0
2023-01-13T18:28:09.597Z,42.0
2023-01-13T18:30:50.437Z,42.0
2023-01-13T18:33:21.298Z,42.0
2023-01-13T18:35:52.089Z,42.0
2023-01-13T18:38:22.854Z,42.0
2023-01-13T18:40:53.598Z,42.0
2023-01-13T18:43:24.349Z,42.0
2023-01-13T18:46:05.175Z,42.0
2023-01-13T18:48:35.982Z,42.0
2023-01-13T18:51:06.739Z,42.0
2023-01-13T18:56:07.623Z,42.0
2023-01-13T18:58:38.391Z,42.0
2023-01-13T19:01:19.355Z,42.0
2023-01-13T19:03:50.344Z,42.0
2023-01-13T19:06:21.432Z,42.0
2023-01-13T19:11:23.422Z,42.0
2023-01-13T19:13:54.190Z,42.0
2023-01-13T19:16:34.942Z,42.0
2023-01-13T19:19:05.688Z,42.0
2023-01-13T19:21:36.463Z,42.0
2023-01-13T19:24:07.236Z,42.0
2023-01-13T19:26:38.014Z,42.0
2023-01-13T19:29:18.763Z,42.0
2023-01-13T19:31:49.566Z,42.0
2023-01-13T19:36:50.550Z,42.0
2023-01-13T19:39:21.366Z,42.0
2023-01-13T19:41:52.112Z,42.0
2023-01-13T19:44:32.858Z,42.0
2023-01-13T19:47:03.608Z,42.0
2023-01-13T19:49:34.344Z,42.0
2023-01-13T19:52:05.108Z,42.0
2023-01-13T19:54:35.840Z,42.0
2023-01-13T19:57:06.609Z,42.0
2023-01-13T19:59:47.365Z,42.0
2023-01-13T20:02:18.204Z,41.0
2023-01-13T20:04:49.145Z,41.0
2023-01-13T20:07:19.893Z,41.0
2023-01-13T20:09:50.669Z,41.0
2023-01-13T20:12:21.437Z,41.0
2023-01-13T20:17:32.369Z,41.0
2023-01-13T20:20:03.179Z,41.0
2023-01-13T20:22:33.930Z,41.0
2023-01-13T20:25:04.887Z,41.0
2023-01-13T20:27:45.767Z,41.0
2023-01-13T20:30:16.578Z,41.0
2023-01-13T20:32:47.357Z,41.0
2023-01-13T20:35:18.123Z,41.0
2023-01-13T20:37:49.024Z,40.0
2023-01-13T20:40:19.845Z,40.0
2023-01-13T20:43:00.614Z,40.0
2023-01-13T20:45:31.422Z,41.0
2023-01-13T20:48:02.162Z,41.0
2023-01-13T20:50:32.946Z,41.0
2023-01-13T20:53:03.743Z,41.0
2023-01-13T20:58:14.666Z,41.0
2023-01-13T21:00:45.501Z,41.0
2023-01-13T21:03:16.386Z,41.0
2023-01-13T21:05:47.212Z,41.0
2023-01-13T21:08:17.951Z,41.0
2023-01-13T21:10:48.729Z,41.0
2023-01-13T21:13:29.488Z,40.0
2023-01-13T21:16:00.341Z,40.0
2023-01-13T21:18:31.255Z,40.0
2023-01-13T21:21:01.985Z,40.0
2023-01-13T21:23:32.745Z,40.0
2023-01-13T21:26:13.499Z,40.0
2023-01-13T21:28:44.237Z,40.0
2023-01-13T21:31:15.072Z,40.0
2023-01-13T21:33:47.586Z,40.0
2023-01-13T21:38:48.528Z,40.0
2023-01-13T21:41:29.295Z,40.0
2023-01-13T21:44:00.035Z,40.0
2023-01-13T21:46:30.821Z,40.0
2023-01-13T21:49:01.584Z,40.0
2023-01-13T21:51:32.326Z,40.0
2023-01-13T21:54:05.483Z,40.0
2023-01-13T21:56:46.254Z,40.0
2023-01-13T21:59:17.017Z,40.0
2023-01-13T22:02:32.637Z,40.0
2023-01-13T22:04:23.529Z,40.0
2023-01-13T22:06:54.305Z,40.0
2023-01-13T22:09:25.065Z,40.0
2023-01-13T22:12:05.827Z,40.0
2023-01-13T22:14:36.898Z,40.0
2023-01-13T22:19:37.825Z,40.0
2023-01-13T22:22:08.600Z,40.0
2023-01-13T22:24:39.367Z,40.0
2023-01-13T22:27:20.395Z,40.0
2023-01-13T22:29:51.148Z,40.0
2023-01-13T22:32:21.914Z,40.0
2023-01-13T22:34:52.664Z,40.0
2023-01-13T22:37:23.417Z,40.0
2023-01-13T22:40:04.192Z,40.0
2023-01-13T22:42:34.948Z,40.0
2023-01-13T22:45:05.683Z,40.0
2023-01-13T22:47:36.440Z,40.0
2023-01-13T22:50:07.237Z,40.0
2023-01-13T22:52:37.998Z,40.0
2023-01-13T22:55:18.790Z,41.0
2023-01-13T23:00:19.709Z,41.0
2023-01-13T23:02:50.467Z,40.0
2023-01-13T23:05:21.263Z,40.0
2023-01-13T23:07:52.034Z,40.0
2023-01-13T23:10:32.825Z,40.0
2023-01-13T23:13:03.553Z,40.0
2023-01-13T23:15:34.331Z,41.0
2023-01-13T23:18:05.180Z,41.0
2023-01-13T23:20:35.956Z,41.0
2023-01-13T23:23:06.687Z,41.0
2023-01-13T23:25:47.495Z,41.0
2023-01-13T23:28:18.225Z,41.0
2023-01-13T23:30:49.048Z,41.0
2023-01-13T23:33:19.997Z,41.0
2023-01-13T23:35:50.770Z,41.0
2023-01-13T23:41:01.704Z,41.0
2023-01-13T23:43:32.533Z,41.0
2023-01-13T23:46:03.455Z,41.0
2023-01-13T23:48:34.343Z,41.0
2023-01-13T23:51:05.129Z,41.0
2023-01-13T23:53:45.925Z,41.0
2023-01-13T23:56:16.872Z,41.0
2023-01-13T23:58:47.681Z,41.0
